sensor_id;sensor_type;location;lat;lon;timestamp;P1;durP1;ratioP1;P2;durP2;ratioP2
34489;SDS011;20730;49.372;7.324;2023-12-28T00:02:13;7.00;;;4.00;;
34489;SDS011;20730;49.372;7.324;2023-12-28T00:04:40;7.60;;;4.25;;
34489;SDS011;20730;49.372;7.324;2023-12-28T00:07:07;8.20;;;4.57;;
34489;SDS011;20730;49.372;7.324;2023-12-28T00:09:34;6.60;;;4.07;;
34489;SDS011;20730;49.372;7.324;2023-12-28T00:12:01;6.30;;;4.03;;
34489;SDS011;20730;49.372;7.324;2023-12-28T00:14:27;7.32;;;4.00;;
34489;SDS011;20730;49.372;7.324;2023-12-28T00:16:54;5.63;;;3.50;;
34489;SDS011;20730;49.372;7.324;2023-12-28T00:19:21;8.05;;;3.90;;
34489;SDS011;20730;49.372;7.324;2023-12-28T00:21:48;6.65;;;4.00;;
34489;SDS011;20730;49.372;7.324;2023-12-28T00:24:16;6.30;;;4.22;;
34489;SDS011;20730;49.372;7.324;2023-12-28T00:26:43;5.53;;;3.75;;
34489;SDS011;20730;49.372;7.324;2023-12-28T00:29:11;6.07;;;4.20;;
34489;SDS011;20730;49.372;7.324;2023-12-28T00:31:37;6.53;;;3.53;;
34489;SDS011;20730;49.372;7.324;2023-12-28T00:34:04;4.75;;;3.45;;
34489;SDS011;20730;49.372;7.324;2023-12-28T00:36:31;5.95;;;3.78;;
34489;SDS011;20730;49.372;7.324;2023-12-28T00:38:58;6.63;;;3.88;;
34489;SDS011;20730;49.372;7.324;2023-12-28T00:41:25;7.30;;;3.65;;
34489;SDS011;20730;49.372;7.324;2023-12-28T00:43:52;7.88;;;3.88;;
34489;SDS011;20730;49.372;7.324;2023-12-28T00:46:20;7.50;;;3.80;;
34489;SDS011;20730;49.372;7.324;2023-12-28T00:48:47;7.93;;;3.70;;
34489;SDS011;20730;49.372;7.324;2023-12-28T00:51:14;4.47;;;3.45;;
34489;SDS011;20730;49.372;7.324;2023-12-28T00:53:41;6.38;;;3.38;;
34489;SDS011;20730;49.372;7.324;2023-12-28T00:56:09;6.32;;;3.88;;
34489;SDS011;20730;49.372;7.324;2023-12-28T00:58:38;5.78;;;3.55;;
34489;SDS011;20730;49.372;7.324;2023-12-28T01:01:05;8.05;;;3.80;;
34489;SDS011;20730;49.372;7.324;2023-12-28T01:03:32;6.28;;;3.63;;
34489;SDS011;20730;49.372;7.324;2023-12-28T01:05:59;6.00;;;3.53;;
34489;SDS011;20730;49.372;7.324;2023-12-28T01:08:26;5.20;;;3.00;;
34489;SDS011;20730;49.372;7.324;2023-12-28T01:10:53;5.35;;;3.30;;
34489;SDS011;20730;49.372;7.324;2023-12-28T01:13:20;3.85;;;3.13;;
34489;SDS011;20730;49.372;7.324;2023-12-28T01:15:47;6.32;;;3.53;;
34489;SDS011;20730;49.372;7.324;2023-12-28T01:18:13;6.32;;;3.55;;
34489;SDS011;20730;49.372;7.324;2023-12-28T01:20:40;6.38;;;3.38;;
34489;SDS011;20730;49.372;7.324;2023-12-28T01:23:08;5.00;;;3.53;;
34489;SDS011;20730;49.372;7.324;2023-12-28T01:25:35;4.50;;;2.85;;
34489;SDS011;20730;49.372;7.324;2023-12-28T01:28:02;6.55;;;3.70;;
34489;SDS011;20730;49.372;7.324;2023-12-28T01:30:30;10.23;;;3.78;;
34489;SDS011;20730;49.372;7.324;2023-12-28T01:32:57;9.20;;;3.78;;
34489;SDS011;20730;49.372;7.324;2023-12-28T01:35:23;5.40;;;3.50;;
34489;SDS011;20730;49.372;7.324;2023-12-28T01:37:50;5.13;;;3.17;;
34489;SDS011;20730;49.372;7.324;2023-12-28T01:40:18;7.25;;;3.80;;
34489;SDS011;20730;49.372;7.324;2023-12-28T01:42:45;8.40;;;3.78;;
34489;SDS011;20730;49.372;7.324;2023-12-28T01:45:11;7.50;;;4.25;;
34489;SDS011;20730;49.372;7.324;2023-12-28T01:47:38;6.45;;;3.72;;
34489;SDS011;20730;49.372;7.324;2023-12-28T01:50:06;6.25;;;3.80;;
34489;SDS011;20730;49.372;7.324;2023-12-28T01:52:34;7.05;;;3.80;;
34489;SDS011;20730;49.372;7.324;2023-12-28T01:55:01;6.70;;;4.28;;
34489;SDS011;20730;49.372;7.324;2023-12-28T01:57:29;8.85;;;4.28;;
34489;SDS011;20730;49.372;7.324;2023-12-28T01:59:58;6.93;;;4.60;;
34489;SDS011;20730;49.372;7.324;2023-12-28T02:02:38;7.18;;;4.10;;
34489;SDS011;20730;49.372;7.324;2023-12-28T02:05:06;7.28;;;4.30;;
34489;SDS011;20730;49.372;7.324;2023-12-28T02:07:33;7.70;;;4.55;;
34489;SDS011;20730;49.372;7.324;2023-12-28T02:10:03;6.70;;;4.63;;
34489;SDS011;20730;49.372;7.324;2023-12-28T02:12:33;10.15;;;4.30;;
34489;SDS011;20730;49.372;7.324;2023-12-28T02:15:00;5.43;;;4.00;;
34489;SDS011;20730;49.372;7.324;2023-12-28T02:19:57;6.78;;;4.15;;
34489;SDS011;20730;49.372;7.324;2023-12-28T02:22:25;6.70;;;4.55;;
34489;SDS011;20730;49.372;7.324;2023-12-28T02:27:42;7.07;;;4.78;;
34489;SDS011;20730;49.372;7.324;2023-12-28T02:30:14;8.43;;;5.15;;
34489;SDS011;20730;49.372;7.324;2023-12-28T02:33:07;6.65;;;4.28;;
34489;SDS011;20730;49.372;7.324;2023-12-28T02:35:57;5.95;;;4.57;;
34489;SDS011;20730;49.372;7.324;2023-12-28T02:38:26;9.15;;;5.10;;
34489;SDS011;20730;49.372;7.324;2023-12-28T02:40:55;7.22;;;4.47;;
34489;SDS011;20730;49.372;7.324;2023-12-28T02:43:21;9.40;;;5.00;;
34489;SDS011;20730;49.372;7.324;2023-12-28T02:45:48;9.40;;;5.00;;
34489;SDS011;20730;49.372;7.324;2023-12-28T02:48:15;10.18;;;5.00;;
34489;SDS011;20730;49.372;7.324;2023-12-28T02:50:42;9.95;;;5.70;;
34489;SDS011;20730;49.372;7.324;2023-12-28T02:53:09;7.30;;;5.20;;
34489;SDS011;20730;49.372;7.324;2023-12-28T02:55:36;9.65;;;5.88;;
34489;SDS011;20730;49.372;7.324;2023-12-28T02:58:03;8.48;;;5.57;;
34489;SDS011;20730;49.372;7.324;2023-12-28T03:00:30;8.73;;;5.20;;
34489;SDS011;20730;49.372;7.324;2023-12-28T03:02:57;7.47;;;5.22;;
34489;SDS011;20730;49.372;7.324;2023-12-28T03:05:24;8.65;;;5.65;;
34489;SDS011;20730;49.372;7.324;2023-12-28T03:07:51;9.50;;;5.50;;
34489;SDS011;20730;49.372;7.324;2023-12-28T03:10:18;8.05;;;5.75;;
34489;SDS011;20730;49.372;7.324;2023-12-28T03:12:45;7.10;;;4.75;;
34489;SDS011;20730;49.372;7.324;2023-12-28T03:15:12;7.07;;;5.15;;
34489;SDS011;20730;49.372;7.324;2023-12-28T03:17:39;10.38;;;5.43;;
34489;SDS011;20730;49.372;7.324;2023-12-28T03:20:06;11.35;;;5.30;;
34489;SDS011;20730;49.372;7.324;2023-12-28T03:22:34;8.88;;;5.28;;
34489;SDS011;20730;49.372;7.324;2023-12-28T03:25:01;9.18;;;5.57;;
34489;SDS011;20730;49.372;7.324;2023-12-28T03:27:33;7.88;;;5.82;;
34489;SDS011;20730;49.372;7.324;2023-12-28T03:30:03;9.27;;;5.97;;
34489;SDS011;20730;49.372;7.324;2023-12-28T03:32:30;7.57;;;5.53;;
34489;SDS011;20730;49.372;7.324;2023-12-28T03:34:57;7.60;;;5.35;;
34489;SDS011;20730;49.372;7.324;2023-12-28T03:37:24;8.13;;;5.45;;
34489;SDS011;20730;49.372;7.324;2023-12-28T03:39:51;9.23;;;5.72;;
34489;SDS011;20730;49.372;7.324;2023-12-28T03:42:18;10.57;;;5.50;;
34489;SDS011;20730;49.372;7.324;2023-12-28T03:44:45;8.05;;;5.72;;
34489;SDS011;20730;49.372;7.324;2023-12-28T03:47:11;7.07;;;5.35;;
34489;SDS011;20730;49.372;7.324;2023-12-28T03:49:38;10.95;;;5.63;;
34489;SDS011;20730;49.372;7.324;2023-12-28T03:52:05;7.95;;;5.32;;
34489;SDS011;20730;49.372;7.324;2023-12-28T03:54:32;6.43;;;4.63;;
34489;SDS011;20730;49.372;7.324;2023-12-28T03:56:59;7.85;;;5.07;;
34489;SDS011;20730;49.372;7.324;2023-12-28T03:59:26;8.07;;;5.47;;
34489;SDS011;20730;49.372;7.324;2023-12-28T04:01:53;7.18;;;5.22;;
34489;SDS011;20730;49.372;7.324;2023-12-28T04:04:20;10.73;;;5.63;;
34489;SDS011;20730;49.372;7.324;2023-12-28T04:06:48;7.30;;;5.18;;
34489;SDS011;20730;49.372;7.324;2023-12-28T04:09:15;7.45;;;4.97;;
34489;SDS011;20730;49.372;7.324;2023-12-28T04:11:45;6.30;;;4.95;;
34489;SDS011;20730;49.372;7.324;2023-12-28T04:14:13;10.02;;;4.97;;
34489;SDS011;20730;49.372;7.324;2023-12-28T04:16:40;5.53;;;4.47;;
34489;SDS011;20730;49.372;7.324;2023-12-28T04:19:06;6.63;;;4.90;;
34489;SDS011;20730;49.372;7.324;2023-12-28T04:21:34;6.47;;;4.28;;
34489;SDS011;20730;49.372;7.324;2023-12-28T04:24:03;6.15;;;4.47;;
34489;SDS011;20730;49.372;7.324;2023-12-28T04:26:29;5.85;;;4.25;;
34489;SDS011;20730;49.372;7.324;2023-12-28T04:28:56;7.13;;;4.20;;
34489;SDS011;20730;49.372;7.324;2023-12-28T04:31:23;6.45;;;4.00;;
34489;SDS011;20730;49.372;7.324;2023-12-28T04:33:50;4.68;;;3.40;;
34489;SDS011;20730;49.372;7.324;2023-12-28T04:36:17;4.95;;;3.92;;
34489;SDS011;20730;49.372;7.324;2023-12-28T04:38:44;5.35;;;3.53;;
34489;SDS011;20730;49.372;7.324;2023-12-28T04:41:11;5.65;;;3.83;;
34489;SDS011;20730;49.372;7.324;2023-12-28T04:43:38;5.57;;;4.05;;
34489;SDS011;20730;49.372;7.324;2023-12-28T04:46:05;4.57;;;3.55;;
34489;SDS011;20730;49.372;7.324;2023-12-28T04:48:32;6.88;;;3.78;;
34489;SDS011;20730;49.372;7.324;2023-12-28T04:51:01;6.47;;;4.53;;
34489;SDS011;20730;49.372;7.324;2023-12-28T04:53:28;5.13;;;3.80;;
34489;SDS011;20730;49.372;7.324;2023-12-28T04:55:56;6.63;;;4.50;;
34489;SDS011;20730;49.372;7.324;2023-12-28T04:58:22;5.80;;;4.40;;
34489;SDS011;20730;49.372;7.324;2023-12-28T05:00:49;6.57;;;4.38;;
34489;SDS011;20730;49.372;7.324;2023-12-28T05:03:18;7.10;;;5.22;;
34489;SDS011;20730;49.372;7.324;2023-12-28T05:05:45;8.88;;;5.00;;
34489;SDS011;20730;49.372;7.324;2023-12-28T05:08:15;7.70;;;5.18;;
34489;SDS011;20730;49.372;7.324;2023-12-28T05:10:41;7.50;;;5.30;;
34489;SDS011;20730;49.372;7.324;2023-12-28T05:13:08;10.07;;;5.50;;
34489;SDS011;20730;49.372;7.324;2023-12-28T05:15:35;7.65;;;4.82;;
34489;SDS011;20730;49.372;7.324;2023-12-28T05:18:02;7.22;;;5.00;;
34489;SDS011;20730;49.372;7.324;2023-12-28T05:20:31;6.63;;;5.30;;
34489;SDS011;20730;49.372;7.324;2023-12-28T05:23:00;8.23;;;6.20;;
34489;SDS011;20730;49.372;7.324;2023-12-28T05:25:26;8.07;;;5.88;;
34489;SDS011;20730;49.372;7.324;2023-12-28T05:27:53;15.65;;;7.00;;
34489;SDS011;20730;49.372;7.324;2023-12-28T05:30:23;8.35;;;6.25;;
34489;SDS011;20730;49.372;7.324;2023-12-28T05:32:49;9.07;;;6.65;;
34489;SDS011;20730;49.372;7.324;2023-12-28T05:35:16;12.02;;;6.53;;
34489;SDS011;20730;49.372;7.324;2023-12-28T05:37:43;11.93;;;6.80;;
34489;SDS011;20730;49.372;7.324;2023-12-28T05:40:10;10.55;;;7.32;;
34489;SDS011;20730;49.372;7.324;2023-12-28T05:42:37;10.05;;;7.28;;
34489;SDS011;20730;49.372;7.324;2023-12-28T05:45:04;12.20;;;7.28;;
34489;SDS011;20730;49.372;7.324;2023-12-28T05:47:30;11.18;;;7.32;;
34489;SDS011;20730;49.372;7.324;2023-12-28T05:49:57;11.57;;;7.57;;
34489;SDS011;20730;49.372;7.324;2023-12-28T05:52:24;15.40;;;7.70;;
34489;SDS011;20730;49.372;7.324;2023-12-28T05:54:51;13.07;;;7.63;;
34489;SDS011;20730;49.372;7.324;2023-12-28T05:57:17;9.77;;;7.32;;
34489;SDS011;20730;49.372;7.324;2023-12-28T05:59:44;10.80;;;7.07;;
34489;SDS011;20730;49.372;7.324;2023-12-28T06:02:12;11.57;;;7.38;;
34489;SDS011;20730;49.372;7.324;2023-12-28T06:04:38;10.27;;;7.18;;
34489;SDS011;20730;49.372;7.324;2023-12-28T06:07:05;10.25;;;6.95;;
34489;SDS011;20730;49.372;7.324;2023-12-28T06:09:33;12.68;;;7.75;;
34489;SDS011;20730;49.372;7.324;2023-12-28T06:11:59;12.18;;;7.28;;
34489;SDS011;20730;49.372;7.324;2023-12-28T06:14:29;8.75;;;6.38;;
34489;SDS011;20730;49.372;7.324;2023-12-28T06:16:56;7.65;;;6.53;;
34489;SDS011;20730;49.372;7.324;2023-12-28T06:19:23;9.50;;;7.55;;
34489;SDS011;20730;49.372;7.324;2023-12-28T06:21:50;7.75;;;6.50;;
34489;SDS011;20730;49.372;7.324;2023-12-28T06:24:17;12.23;;;7.38;;
34489;SDS011;20730;49.372;7.324;2023-12-28T06:26:44;11.38;;;7.82;;
34489;SDS011;20730;49.372;7.324;2023-12-28T06:29:11;12.52;;;7.72;;
34489;SDS011;20730;49.372;7.324;2023-12-28T06:31:39;10.57;;;7.68;;
34489;SDS011;20730;49.372;7.324;2023-12-28T06:34:06;10.63;;;7.45;;
34489;SDS011;20730;49.372;7.324;2023-12-28T06:36:34;12.80;;;7.18;;
34489;SDS011;20730;49.372;7.324;2023-12-28T06:39:01;8.20;;;6.65;;
34489;SDS011;20730;49.372;7.324;2023-12-28T06:41:30;12.98;;;6.63;;
34489;SDS011;20730;49.372;7.324;2023-12-28T06:43:57;10.43;;;6.70;;
34489;SDS011;20730;49.372;7.324;2023-12-28T06:46:24;11.25;;;6.95;;
34489;SDS011;20730;49.372;7.324;2023-12-28T06:48:50;10.98;;;6.25;;
34489;SDS011;20730;49.372;7.324;2023-12-28T06:51:20;11.52;;;6.80;;
34489;SDS011;20730;49.372;7.324;2023-12-28T06:53:48;11.57;;;6.50;;
34489;SDS011;20730;49.372;7.324;2023-12-28T06:56:16;11.80;;;7.03;;
34489;SDS011;20730;49.372;7.324;2023-12-28T06:58:48;11.30;;;5.90;;
34489;SDS011;20730;49.372;7.324;2023-12-28T07:01:15;6.75;;;5.20;;
34489;SDS011;20730;49.372;7.324;2023-12-28T07:03:42;11.32;;;6.00;;
34489;SDS011;20730;49.372;7.324;2023-12-28T07:06:09;7.15;;;5.68;;
34489;SDS011;20730;49.372;7.324;2023-12-28T07:08:35;8.07;;;5.43;;
34489;SDS011;20730;49.372;7.324;2023-12-28T07:11:03;9.90;;;6.13;;
34489;SDS011;20730;49.372;7.324;2023-12-28T07:13:31;8.15;;;5.80;;
34489;SDS011;20730;49.372;7.324;2023-12-28T07:15:58;9.25;;;5.65;;
34489;SDS011;20730;49.372;7.324;2023-12-28T07:18:27;9.27;;;5.82;;
34489;SDS011;20730;49.372;7.324;2023-12-28T07:20:54;7.90;;;5.65;;
34489;SDS011;20730;49.372;7.324;2023-12-28T07:23:21;9.18;;;5.80;;
34489;SDS011;20730;49.372;7.324;2023-12-28T07:25:48;9.48;;;5.65;;
34489;SDS011;20730;49.372;7.324;2023-12-28T07:28:15;10.98;;;5.47;;
34489;SDS011;20730;49.372;7.324;2023-12-28T07:30:41;10.15;;;5.80;;
34489;SDS011;20730;49.372;7.324;2023-12-28T07:33:09;10.93;;;6.00;;
34489;SDS011;20730;49.372;7.324;2023-12-28T07:35:36;9.32;;;5.47;;
34489;SDS011;20730;49.372;7.324;2023-12-28T07:38:04;7.22;;;5.28;;
34489;SDS011;20730;49.372;7.324;2023-12-28T07:40:31;10.25;;;5.22;;
34489;SDS011;20730;49.372;7.324;2023-12-28T07:42:58;10.23;;;5.68;;
34489;SDS011;20730;49.372;7.324;2023-12-28T07:45:25;9.15;;;4.97;;
34489;SDS011;20730;49.372;7.324;2023-12-28T07:47:55;9.70;;;5.33;;
34489;SDS011;20730;49.372;7.324;2023-12-28T07:50:22;9.77;;;5.38;;
34489;SDS011;20730;49.372;7.324;2023-12-28T07:52:49;6.90;;;5.40;;
34489;SDS011;20730;49.372;7.324;2023-12-28T07:55:16;8.85;;;5.40;;
34489;SDS011;20730;49.372;7.324;2023-12-28T07:57:43;9.48;;;5.30;;
34489;SDS011;20730;49.372;7.324;2023-12-28T08:00:10;9.90;;;5.63;;
34489;SDS011;20730;49.372;7.324;2023-12-28T08:02:37;11.02;;;5.13;;
34489;SDS011;20730;49.372;7.324;2023-12-28T08:05:04;10.43;;;6.22;;
34489;SDS011;20730;49.372;7.324;2023-12-28T08:07:32;9.88;;;5.47;;
34489;SDS011;20730;49.372;7.324;2023-12-28T08:09:58;8.05;;;5.20;;
34489;SDS011;20730;49.372;7.324;2023-12-28T08:12:26;9.15;;;5.05;;
34489;SDS011;20730;49.372;7.324;2023-12-28T08:14:55;8.50;;;4.90;;
34489;SDS011;20730;49.372;7.324;2023-12-28T08:17:22;8.07;;;4.93;;
34489;SDS011;20730;49.372;7.324;2023-12-28T08:19:50;9.82;;;4.93;;
34489;SDS011;20730;49.372;7.324;2023-12-28T08:22:17;6.00;;;4.32;;
34489;SDS011;20730;49.372;7.324;2023-12-28T08:24:45;9.38;;;4.80;;
34489;SDS011;20730;49.372;7.324;2023-12-28T08:27:11;8.77;;;5.45;;
34489;SDS011;20730;49.372;7.324;2023-12-28T08:29:39;11.57;;;4.80;;
34489;SDS011;20730;49.372;7.324;2023-12-28T08:32:08;8.20;;;4.72;;
34489;SDS011;20730;49.372;7.324;2023-12-28T08:34:35;5.65;;;4.30;;
34489;SDS011;20730;49.372;7.324;2023-12-28T08:37:02;8.75;;;4.63;;
34489;SDS011;20730;49.372;7.324;2023-12-28T08:39:28;10.13;;;5.05;;
34489;SDS011;20730;49.372;7.324;2023-12-28T08:41:55;9.88;;;4.70;;
34489;SDS011;20730;49.372;7.324;2023-12-28T08:44:22;7.70;;;4.82;;
34489;SDS011;20730;49.372;7.324;2023-12-28T08:46:49;6.78;;;4.63;;
34489;SDS011;20730;49.372;7.324;2023-12-28T08:49:16;6.55;;;4.97;;
34489;SDS011;20730;49.372;7.324;2023-12-28T08:51:42;8.98;;;5.05;;
34489;SDS011;20730;49.372;7.324;2023-12-28T08:54:10;8.40;;;5.00;;
34489;SDS011;20730;49.372;7.324;2023-12-28T08:56:37;11.27;;;5.28;;
34489;SDS011;20730;49.372;7.324;2023-12-28T08:59:04;9.70;;;5.22;;
34489;SDS011;20730;49.372;7.324;2023-12-28T09:01:31;8.90;;;4.35;;
34489;SDS011;20730;49.372;7.324;2023-12-28T09:03:58;6.43;;;4.68;;
34489;SDS011;20730;49.372;7.324;2023-12-28T09:06:25;9.25;;;5.00;;
34489;SDS011;20730;49.372;7.324;2023-12-28T09:08:52;10.82;;;4.80;;
34489;SDS011;20730;49.372;7.324;2023-12-28T09:11:20;6.78;;;4.47;;
34489;SDS011;20730;49.372;7.324;2023-12-28T09:13:47;6.80;;;4.40;;
34489;SDS011;20730;49.372;7.324;2023-12-28T09:16:14;6.97;;;4.07;;
34489;SDS011;20730;49.372;7.324;2023-12-28T09:18:41;5.45;;;4.32;;
34489;SDS011;20730;49.372;7.324;2023-12-28T09:21:09;10.10;;;4.40;;
34489;SDS011;20730;49.372;7.324;2023-12-28T09:23:36;9.40;;;4.38;;
34489;SDS011;20730;49.372;7.324;2023-12-28T09:26:03;7.60;;;4.45;;
34489;SDS011;20730;49.372;7.324;2023-12-28T09:28:31;8.45;;;4.47;;
34489;SDS011;20730;49.372;7.324;2023-12-28T09:30:59;5.20;;;3.78;;
34489;SDS011;20730;49.372;7.324;2023-12-28T09:33:26;6.00;;;3.40;;
34489;SDS011;20730;49.372;7.324;2023-12-28T09:35:53;7.70;;;3.30;;
34489;SDS011;20730;49.372;7.324;2023-12-28T09:38:20;6.53;;;3.65;;
34489;SDS011;20730;49.372;7.324;2023-12-28T09:40:46;4.25;;;3.10;;
34489;SDS011;20730;49.372;7.324;2023-12-28T09:43:26;7.18;;;3.40;;
34489;SDS011;20730;49.372;7.324;2023-12-28T09:46:07;6.95;;;3.45;;
34489;SDS011;20730;49.372;7.324;2023-12-28T09:48:38;5.63;;;2.90;;
34489;SDS011;20730;49.372;7.324;2023-12-28T09:51:05;6.93;;;3.25;;
34489;SDS011;20730;49.372;7.324;2023-12-28T09:53:35;4.60;;;3.23;;
34489;SDS011;20730;49.372;7.324;2023-12-28T09:56:02;6.38;;;2.97;;
34489;SDS011;20730;49.372;7.324;2023-12-28T09:58:29;7.10;;;3.38;;
34489;SDS011;20730;49.372;7.324;2023-12-28T10:00:59;7.20;;;3.67;;
34489;SDS011;20730;49.372;7.324;2023-12-28T10:03:26;6.18;;;3.17;;
34489;SDS011;20730;49.372;7.324;2023-12-28T10:05:53;5.55;;;3.45;;
34489;SDS011;20730;49.372;7.324;2023-12-28T10:08:19;5.40;;;3.30;;
34489;SDS011;20730;49.372;7.324;2023-12-28T10:10:46;4.50;;;3.50;;
34489;SDS011;20730;49.372;7.324;2023-12-28T10:13:20;8.23;;;3.75;;
34489;SDS011;20730;49.372;7.324;2023-12-28T10:15:48;6.70;;;3.65;;
34489;SDS011;20730;49.372;7.324;2023-12-28T10:18:19;7.80;;;3.90;;
34489;SDS011;20730;49.372;7.324;2023-12-28T10:20:50;4.82;;;3.53;;
34489;SDS011;20730;49.372;7.324;2023-12-28T10:23:20;4.70;;;3.35;;
34489;SDS011;20730;49.372;7.324;2023-12-28T10:25:50;5.40;;;3.40;;
34489;SDS011;20730;49.372;7.324;2023-12-28T10:28:20;6.22;;;3.50;;
34489;SDS011;20730;49.372;7.324;2023-12-28T10:30:46;8.45;;;4.15;;
34489;SDS011;20730;49.372;7.324;2023-12-28T10:33:14;6.95;;;3.80;;
34489;SDS011;20730;49.372;7.324;2023-12-28T10:35:43;5.22;;;3.83;;
34489;SDS011;20730;49.372;7.324;2023-12-28T10:38:11;5.85;;;3.63;;
34489;SDS011;20730;49.372;7.324;2023-12-28T10:40:40;6.30;;;3.55;;
34489;SDS011;20730;49.372;7.324;2023-12-28T10:43:08;7.43;;;3.72;;
34489;SDS011;20730;49.372;7.324;2023-12-28T10:45:39;7.30;;;3.72;;
34489;SDS011;20730;49.372;7.324;2023-12-28T10:48:10;8.55;;;3.60;;
34489;SDS011;20730;49.372;7.324;2023-12-28T10:50:49;6.28;;;3.33;;
34489;SDS011;20730;49.372;7.324;2023-12-28T11:01:17;9.35;;;4.00;;
34489;SDS011;20730;49.372;7.324;2023-12-28T11:04:02;10.40;;;3.90;;
34489;SDS011;20730;49.372;7.324;2023-12-28T11:06:42;6.25;;;3.70;;
34489;SDS011;20730;49.372;7.324;2023-12-28T11:09:10;10.48;;;4.82;;
34489;SDS011;20730;49.372;7.324;2023-12-28T11:11:38;7.30;;;4.03;;
34489;SDS011;20730;49.372;7.324;2023-12-28T11:14:06;13.52;;;5.95;;
34489;SDS011;20730;49.372;7.324;2023-12-28T11:16:33;16.13;;;6.68;;
34489;SDS011;20730;49.372;7.324;2023-12-28T11:19:01;10.80;;;5.30;;
34489;SDS011;20730;49.372;7.324;2023-12-28T11:21:28;6.85;;;4.20;;
34489;SDS011;20730;49.372;7.324;2023-12-28T11:23:55;8.73;;;4.70;;
34489;SDS011;20730;49.372;7.324;2023-12-28T11:26:23;8.07;;;3.22;;
34489;SDS011;20730;49.372;7.324;2023-12-28T11:28:59;5.22;;;2.92;;
34489;SDS011;20730;49.372;7.324;2023-12-28T11:31:27;4.43;;;2.33;;
34489;SDS011;20730;49.372;7.324;2023-12-28T11:33:54;5.65;;;2.97;;
34489;SDS011;20730;49.372;7.324;2023-12-28T11:36:22;3.70;;;2.80;;
34489;SDS011;20730;49.372;7.324;2023-12-28T11:38:53;7.15;;;2.70;;
34489;SDS011;20730;49.372;7.324;2023-12-28T11:41:25;4.43;;;2.83;;
34489;SDS011;20730;49.372;7.324;2023-12-28T11:43:55;3.70;;;2.30;;
34489;SDS011;20730;49.372;7.324;2023-12-28T11:46:22;5.65;;;2.97;;
34489;SDS011;20730;49.372;7.324;2023-12-28T11:48:49;4.15;;;2.88;;
34489;SDS011;20730;49.372;7.324;2023-12-28T11:51:16;3.95;;;2.80;;
34489;SDS011;20730;49.372;7.324;2023-12-28T11:53:43;3.35;;;3.03;;
34489;SDS011;20730;49.372;7.324;2023-12-28T11:56:14;7.40;;;3.47;;
34489;SDS011;20730;49.372;7.324;2023-12-28T11:58:42;5.47;;;2.97;;
34489;SDS011;20730;49.372;7.324;2023-12-28T12:01:12;5.00;;;2.90;;
34489;SDS011;20730;49.372;7.324;2023-12-28T12:03:39;4.35;;;2.97;;
34489;SDS011;20730;49.372;7.324;2023-12-28T12:06:06;4.57;;;2.83;;
34489;SDS011;20730;49.372;7.324;2023-12-28T12:08:33;3.25;;;2.50;;
34489;SDS011;20730;49.372;7.324;2023-12-28T12:11:06;3.00;;;2.55;;
34489;SDS011;20730;49.372;7.324;2023-12-28T12:13:33;2.63;;;2.40;;
34489;SDS011;20730;49.372;7.324;2023-12-28T12:16:00;3.78;;;2.50;;
34489;SDS011;20730;49.372;7.324;2023-12-28T12:18:32;2.75;;;2.33;;
34489;SDS011;20730;49.372;7.324;2023-12-28T12:21:00;3.08;;;2.67;;
34489;SDS011;20730;49.372;7.324;2023-12-28T12:23:27;4.00;;;2.60;;
34489;SDS011;20730;49.372;7.324;2023-12-28T12:25:54;2.83;;;2.40;;
34489;SDS011;20730;49.372;7.324;2023-12-28T12:28:22;2.67;;;2.42;;
34489;SDS011;20730;49.372;7.324;2023-12-28T12:30:54;3.83;;;2.58;;
34489;SDS011;20730;49.372;7.324;2023-12-28T12:33:24;2.78;;;2.40;;
34489;SDS011;20730;49.372;7.324;2023-12-28T12:35:52;3.17;;;2.55;;
34489;SDS011;20730;49.372;7.324;2023-12-28T12:38:19;2.60;;;2.40;;
34489;SDS011;20730;49.372;7.324;2023-12-28T12:40:46;2.95;;;2.42;;
34489;SDS011;20730;49.372;7.324;2023-12-28T12:43:13;3.25;;;2.83;;
34489;SDS011;20730;49.372;7.324;2023-12-28T12:45:39;10.43;;;3.22;;
34489;SDS011;20730;49.372;7.324;2023-12-28T12:48:06;3.70;;;3.20;;
34489;SDS011;20730;49.372;7.324;2023-12-28T12:50:33;4.50;;;3.65;;
34489;SDS011;20730;49.372;7.324;2023-12-28T12:53:00;3.80;;;3.33;;
34489;SDS011;20730;49.372;7.324;2023-12-28T12:55:27;4.45;;;3.70;;
34489;SDS011;20730;49.372;7.324;2023-12-28T12:57:54;6.65;;;4.10;;
34489;SDS011;20730;49.372;7.324;2023-12-28T13:02:51;6.32;;;3.75;;
34489;SDS011;20730;49.372;7.324;2023-12-28T13:05:19;5.95;;;4.35;;
34489;SDS011;20730;49.372;7.324;2023-12-28T13:07:46;6.15;;;4.40;;
34489;SDS011;20730;49.372;7.324;2023-12-28T13:10:13;9.00;;;4.13;;
34489;SDS011;20730;49.372;7.324;2023-12-28T13:12:40;6.60;;;4.78;;
34489;SDS011;20730;49.372;7.324;2023-12-28T13:15:07;6.13;;;4.75;;
34489;SDS011;20730;49.372;7.324;2023-12-28T13:17:36;5.25;;;4.28;;
34489;SDS011;20730;49.372;7.324;2023-12-28T13:20:07;10.40;;;4.50;;
34489;SDS011;20730;49.372;7.324;2023-12-28T13:22:34;11.40;;;5.35;;
34489;SDS011;20730;49.372;7.324;2023-12-28T13:25:01;6.43;;;5.20;;
34489;SDS011;20730;49.372;7.324;2023-12-28T13:27:29;10.43;;;5.07;;
34489;SDS011;20730;49.372;7.324;2023-12-28T13:29:56;8.20;;;5.07;;
34489;SDS011;20730;49.372;7.324;2023-12-28T13:32:23;6.95;;;5.18;;
34489;SDS011;20730;49.372;7.324;2023-12-28T13:34:50;9.75;;;5.60;;
34489;SDS011;20730;49.372;7.324;2023-12-28T13:37:19;9.80;;;5.70;;
34489;SDS011;20730;49.372;7.324;2023-12-28T13:39:46;8.27;;;5.20;;
34489;SDS011;20730;49.372;7.324;2023-12-28T13:42:14;9.85;;;5.63;;
34489;SDS011;20730;49.372;7.324;2023-12-28T13:44:41;8.02;;;5.22;;
34489;SDS011;20730;49.372;7.324;2023-12-28T13:47:09;6.32;;;4.97;;
34489;SDS011;20730;49.372;7.324;2023-12-28T13:49:36;6.75;;;4.88;;
34489;SDS011;20730;49.372;7.324;2023-12-28T13:52:03;7.30;;;5.10;;
34489;SDS011;20730;49.372;7.324;2023-12-28T13:54:30;10.98;;;4.90;;
34489;SDS011;20730;49.372;7.324;2023-12-28T13:56:57;7.78;;;5.13;;
34489;SDS011;20730;49.372;7.324;2023-12-28T13:59:25;7.13;;;4.78;;
34489;SDS011;20730;49.372;7.324;2023-12-28T14:01:52;6.85;;;4.40;;
34489;SDS011;20730;49.372;7.324;2023-12-28T14:04:19;6.10;;;4.40;;
34489;SDS011;20730;49.372;7.324;2023-12-28T14:06:46;7.55;;;4.63;;
34489;SDS011;20730;49.372;7.324;2023-12-28T14:09:13;7.03;;;4.70;;
34489;SDS011;20730;49.372;7.324;2023-12-28T14:11:40;5.97;;;4.40;;
34489;SDS011;20730;49.372;7.324;2023-12-28T14:14:07;6.88;;;4.20;;
34489;SDS011;20730;49.372;7.324;2023-12-28T14:16:34;8.43;;;4.47;;
34489;SDS011;20730;49.372;7.324;2023-12-28T14:19:00;9.05;;;4.53;;
34489;SDS011;20730;49.372;7.324;2023-12-28T14:21:27;5.72;;;3.92;;
34489;SDS011;20730;49.372;7.324;2023-12-28T14:23:54;5.88;;;4.40;;
34489;SDS011;20730;49.372;7.324;2023-12-28T14:26:21;5.50;;;4.28;;
34489;SDS011;20730;49.372;7.324;2023-12-28T14:28:49;5.57;;;3.90;;
34489;SDS011;20730;49.372;7.324;2023-12-28T14:31:16;5.93;;;4.18;;
34489;SDS011;20730;49.372;7.324;2023-12-28T14:33:43;8.25;;;4.63;;
34489;SDS011;20730;49.372;7.324;2023-12-28T14:38:50;8.27;;;3.95;;
34489;SDS011;20730;49.372;7.324;2023-12-28T14:41:17;10.18;;;3.60;;
34489;SDS011;20730;49.372;7.324;2023-12-28T14:43:44;6.38;;;4.20;;
34489;SDS011;20730;49.372;7.324;2023-12-28T14:46:10;5.28;;;4.20;;
34489;SDS011;20730;49.372;7.324;2023-12-28T14:48:37;7.53;;;4.13;;
34489;SDS011;20730;49.372;7.324;2023-12-28T14:51:04;6.68;;;4.13;;
34489;SDS011;20730;49.372;7.324;2023-12-28T14:53:31;6.90;;;3.80;;
34489;SDS011;20730;49.372;7.324;2023-12-28T14:55:57;5.25;;;4.18;;
34489;SDS011;20730;49.372;7.324;2023-12-28T14:58:26;7.63;;;3.95;;
34489;SDS011;20730;49.372;7.324;2023-12-28T15:00:52;7.88;;;3.72;;
34489;SDS011;20730;49.372;7.324;2023-12-28T15:03:20;5.43;;;4.47;;
34489;SDS011;20730;49.372;7.324;2023-12-28T15:05:47;6.07;;;4.25;;
34489;SDS011;20730;49.372;7.324;2023-12-28T15:08:14;6.80;;;4.00;;